Rose Hill, North Carolina
Current Conditions -  °F | °C
As of 11:15 AM on Monday 22 Dec 2014 (Local Time) from KDPL Reporting Station
Overcast Overcast  
Wind Chill: 37°   Ceiling: 700
Heat Index: 43°   Visibility: 10mi
Dew Point: 42°   Wind: 9mph
Humidity: 96%   Direction: 10°N
Pressure: 30.1"   Gusts: NA
Location:  34.83°N, 78.02°W
Report Text: KDPL 221615Z AUTO 01008KT 10SM OVC007 06/05 A3010 RMK AO2 T00590053
Loading
Personal Weather Stations






























Interactive Weather Map New forecast layout! Learn more

10-Day Weather Forecast

Advertisements
Track Severe Weather on mobile